Tulsa, OK (74152)

7:32 PM CDT on August 30, 2015 (GMT -0500)
25th and Lewis | | Change Station
CLOSE
Current Station
Personal Weather Station
Location: Tulsa, OK
Elevation: 738 ft
Nearby Weather Stations

Elev 738 ft 36.13 °N, 95.96 °W | Updated 18 seconds ago

Partly Cloudy
Partly Cloudy
83.3 °F
Feels Like 90 °F
N
0.0
Wind Variable Wind from East
Gusts 0.0 mph

Today
High -- | Low -- °F
--% Chance of Precip.
Yesterday
High -- | Low -- °F
Precip. -- in
6:53 AM 7:54 PM
Full, 98% visible
Pressure 29.88 in
Visibility 10.0 miles
Clouds Few 4500 ft
Scattered Clouds 6000 ft
Heat Index 90 °F
Dew Point 74 °F
Humidity 73%
Rainfall 0.00 in
Snow Depth Not available.
UV 0 out of 12
Pollen 9.30 out of 12
Air Quality Not available.
Flu Activity Not available.
METAR KTUL 302353Z 08006KT 10SM FEW045 SCT060 29/23 A2991 RMK AO2 SLP119 CB DSNT SE-S MOV NE T02940228 10317 20289 56008
Pressure 29.88 in
Visibility 10.0 miles
Clouds Few 4500 ft
Scattered Clouds 6000 ft
Heat Index 90 °F
Dew Point 74 °F
Humidity 73%
Rainfall 0.00 in
Snow Depth Not available.
UV 0 out of 12
Pollen 9.30 out of 12
Air Quality Not available.
Flu Activity Not available.
METAR KTUL 302353Z 08006KT 10SM FEW045 SCT060 29/23 A2991 RMK AO2 SLP119 CB DSNT SE-S MOV NE T02940228 10317 20289 56008
Nowcast | as of 6:32 PM CDT on August 30, 2015

At 6:30 PM...National Weather Service Doppler radars continued to detect scattered showers and thunderstorms affecting southeast Oklahoma into western Arkansas. A couple stronger storms were located within Haskell...Latimer...and southern Le Flore counties. All this activity was nearly stationary. Through 8:00 PM...scattered rain showers thunderstorms will remain possible...mainly across southeast Oklahoma and western Arkansas. Light to moderate rainfall can be expected...with less than a tenth of an inch per hour. Any stronger thunderstorms that develop could produce brief heavy rainfall...along with hail...gusty winds...and cloud to ground lightning.

×

10-Day Weather Forecast

×

Almanac

Astronomy

Aug. 30, 2015 Rise Set
Actual Time
Civil Twilight
Nautical Twilight
Astronomical Twilight
Moon
Length of Visible Light
Length of Day
Tomorrow will be .
, % of the Moon is Illuminated

Today's Extremes

State Highs State Lows

Community

WunderPhotos

Upload Photos

1,851,111 photos uploaded!

WunderBlogs® & News

Nearby

Air Quality

  Air Quality AQ Index Pollutant
Not available.

Snow Depth

Station Depth Elevation

Earthquake Activity

City Distance Mag. Time & Date
Minimum magnitude displayed is 2.5.

Coastal Water Temperatures

Place Temperature

Stations

Nearby Weather Stations

Station Location Temp. Windchill Dew Point Humidity Wind Precip. Elev Updated Type